sensor_id;sensor_type;location;lat;lon;timestamp;P1;durP1;ratioP1;P2;durP2;ratioP2
13234;SDS011;6683;48.506;9.050;2023-04-24T00:01:31;1.57;;;0.70;;
13234;SDS011;6683;48.506;9.050;2023-04-24T00:04:35;1.73;;;0.50;;
13234;SDS011;6683;48.506;9.050;2023-04-24T00:07:40;0.50;;;0.50;;
13234;SDS011;6683;48.506;9.050;2023-04-24T00:10:43;2.03;;;0.70;;
13234;SDS011;6683;48.506;9.050;2023-04-24T00:13:46;1.03;;;0.63;;
13234;SDS011;6683;48.506;9.050;2023-04-24T00:16:48;1.47;;;0.60;;
13234;SDS011;6683;48.506;9.050;2023-04-24T00:19:53;0.73;;;0.60;;
13234;SDS011;6683;48.506;9.050;2023-04-24T00:22:58;1.90;;;0.57;;
13234;SDS011;6683;48.506;9.050;2023-04-24T00:26:01;1.00;;;0.50;;
13234;SDS011;6683;48.506;9.050;2023-04-24T00:29:03;0.40;;;0.40;;
13234;SDS011;6683;48.506;9.050;2023-04-24T00:32:06;3.07;;;0.57;;
13234;SDS011;6683;48.506;9.050;2023-04-24T00:35:10;1.03;;;0.70;;
13234;SDS011;6683;48.506;9.050;2023-04-24T00:38:13;0.60;;;0.50;;
13234;SDS011;6683;48.506;9.050;2023-04-24T00:41:15;0.73;;;0.57;;
13234;SDS011;6683;48.506;9.050;2023-04-24T00:44:18;2.10;;;0.70;;
13234;SDS011;6683;48.506;9.050;2023-04-24T00:47:21;0.83;;;0.53;;
13234;SDS011;6683;48.506;9.050;2023-04-24T00:50:25;0.77;;;0.50;;
13234;SDS011;6683;48.506;9.050;2023-04-24T00:53:27;0.97;;;0.60;;
13234;SDS011;6683;48.506;9.050;2023-04-24T00:56:30;0.70;;;0.50;;
13234;SDS011;6683;48.506;9.050;2023-04-24T00:59:33;0.60;;;0.43;;
13234;SDS011;6683;48.506;9.050;2023-04-24T01:02:36;0.40;;;0.40;;
13234;SDS011;6683;48.506;9.050;2023-04-24T01:05:45;0.43;;;0.40;;
13234;SDS011;6683;48.506;9.050;2023-04-24T01:08:48;2.10;;;0.67;;
13234;SDS011;6683;48.506;9.050;2023-04-24T01:11:51;2.20;;;0.60;;
13234;SDS011;6683;48.506;9.050;2023-04-24T01:14:54;1.20;;;0.50;;
13234;SDS011;6683;48.506;9.050;2023-04-24T01:17:57;1.00;;;0.60;;
13234;SDS011;6683;48.506;9.050;2023-04-24T01:21:02;2.73;;;0.70;;
13234;SDS011;6683;48.506;9.050;2023-04-24T01:24:09;1.73;;;0.63;;
13234;SDS011;6683;48.506;9.050;2023-04-24T01:27:11;0.67;;;0.57;;
13234;SDS011;6683;48.506;9.050;2023-04-24T01:30:14;0.90;;;0.60;;
13234;SDS011;6683;48.506;9.050;2023-04-24T01:33:17;0.83;;;0.53;;
13234;SDS011;6683;48.506;9.050;2023-04-24T01:36:20;0.73;;;0.60;;
13234;SDS011;6683;48.506;9.050;2023-04-24T01:39:25;2.27;;;0.70;;
13234;SDS011;6683;48.506;9.050;2023-04-24T01:42:28;0.97;;;0.50;;
13234;SDS011;6683;48.506;9.050;2023-04-24T01:45:31;0.40;;;0.40;;
13234;SDS011;6683;48.506;9.050;2023-04-24T01:48:34;1.17;;;0.60;;
13234;SDS011;6683;48.506;9.050;2023-04-24T01:51:37;1.27;;;0.57;;
13234;SDS011;6683;48.506;9.050;2023-04-24T01:54:41;0.70;;;0.60;;
13234;SDS011;6683;48.506;9.050;2023-04-24T01:57:43;0.90;;;0.50;;
13234;SDS011;6683;48.506;9.050;2023-04-24T02:00:45;0.60;;;0.50;;
13234;SDS011;6683;48.506;9.050;2023-04-24T02:03:47;0.80;;;0.50;;
13234;SDS011;6683;48.506;9.050;2023-04-24T02:06:50;0.97;;;0.60;;
13234;SDS011;6683;48.506;9.050;2023-04-24T02:09:54;0.60;;;0.50;;
13234;SDS011;6683;48.506;9.050;2023-04-24T02:12:56;1.20;;;0.60;;
13234;SDS011;6683;48.506;9.050;2023-04-24T02:15:59;0.93;;;0.57;;
13234;SDS011;6683;48.506;9.050;2023-04-24T02:19:01;0.80;;;0.50;;
13234;SDS011;6683;48.506;9.050;2023-04-24T02:22:04;0.93;;;0.67;;
13234;SDS011;6683;48.506;9.050;2023-04-24T02:25:10;2.10;;;0.73;;
13234;SDS011;6683;48.506;9.050;2023-04-24T02:28:12;0.60;;;0.50;;
13234;SDS011;6683;48.506;9.050;2023-04-24T02:31:15;1.30;;;0.53;;
13234;SDS011;6683;48.506;9.050;2023-04-24T02:34:17;0.50;;;0.50;;
13234;SDS011;6683;48.506;9.050;2023-04-24T02:37:20;1.00;;;0.60;;
13234;SDS011;6683;48.506;9.050;2023-04-24T02:40:23;0.73;;;0.50;;
13234;SDS011;6683;48.506;9.050;2023-04-24T02:43:26;0.70;;;0.40;;
13234;SDS011;6683;48.506;9.050;2023-04-24T02:46:28;0.40;;;0.40;;
13234;SDS011;6683;48.506;9.050;2023-04-24T02:49:31;0.70;;;0.40;;
13234;SDS011;6683;48.506;9.050;2023-04-24T02:52:33;1.30;;;0.50;;
13234;SDS011;6683;48.506;9.050;2023-04-24T02:55:37;0.50;;;0.50;;
13234;SDS011;6683;48.506;9.050;2023-04-24T02:58:40;1.70;;;0.80;;
13234;SDS011;6683;48.506;9.050;2023-04-24T03:01:43;0.80;;;0.60;;
13234;SDS011;6683;48.506;9.050;2023-04-24T03:04:46;0.73;;;0.43;;
13234;SDS011;6683;48.506;9.050;2023-04-24T03:07:49;0.80;;;0.67;;
13234;SDS011;6683;48.506;9.050;2023-04-24T03:10:53;0.60;;;0.40;;
13234;SDS011;6683;48.506;9.050;2023-04-24T03:13:56;1.90;;;0.77;;
13234;SDS011;6683;48.506;9.050;2023-04-24T03:16:58;2.87;;;0.60;;
13234;SDS011;6683;48.506;9.050;2023-04-24T03:20:01;1.23;;;0.70;;
13234;SDS011;6683;48.506;9.050;2023-04-24T03:23:05;1.77;;;1.00;;
13234;SDS011;6683;48.506;9.050;2023-04-24T03:26:09;0.80;;;0.60;;
13234;SDS011;6683;48.506;9.050;2023-04-24T03:29:11;1.10;;;0.43;;
13234;SDS011;6683;48.506;9.050;2023-04-24T03:32:14;2.20;;;0.40;;
13234;SDS011;6683;48.506;9.050;2023-04-24T03:35:17;2.23;;;0.40;;
13234;SDS011;6683;48.506;9.050;2023-04-24T03:38:21;0.57;;;0.40;;
13234;SDS011;6683;48.506;9.050;2023-04-24T03:41:25;0.40;;;0.40;;
13234;SDS011;6683;48.506;9.050;2023-04-24T03:44:27;1.77;;;0.40;;
13234;SDS011;6683;48.506;9.050;2023-04-24T03:47:30;1.27;;;0.50;;
13234;SDS011;6683;48.506;9.050;2023-04-24T03:50:32;0.83;;;0.40;;
13234;SDS011;6683;48.506;9.050;2023-04-24T03:53:35;0.40;;;0.30;;
13234;SDS011;6683;48.506;9.050;2023-04-24T03:56:39;1.40;;;0.60;;
13234;SDS011;6683;48.506;9.050;2023-04-24T03:59:42;0.63;;;0.50;;
13234;SDS011;6683;48.506;9.050;2023-04-24T04:02:44;1.20;;;0.47;;
13234;SDS011;6683;48.506;9.050;2023-04-24T04:05:46;0.83;;;0.40;;
13234;SDS011;6683;48.506;9.050;2023-04-24T04:08:49;1.70;;;0.60;;
13234;SDS011;6683;48.506;9.050;2023-04-24T04:11:53;1.20;;;0.63;;
13234;SDS011;6683;48.506;9.050;2023-04-24T04:14:56;0.70;;;0.40;;
13234;SDS011;6683;48.506;9.050;2023-04-24T04:17:59;1.27;;;0.50;;
13234;SDS011;6683;48.506;9.050;2023-04-24T04:21:01;0.40;;;0.40;;
13234;SDS011;6683;48.506;9.050;2023-04-24T04:24:04;1.53;;;0.40;;
13234;SDS011;6683;48.506;9.050;2023-04-24T04:27:08;1.20;;;0.50;;
13234;SDS011;6683;48.506;9.050;2023-04-24T04:30:11;0.90;;;0.50;;
13234;SDS011;6683;48.506;9.050;2023-04-24T04:33:14;0.50;;;0.50;;
13234;SDS011;6683;48.506;9.050;2023-04-24T04:36:16;1.07;;;0.40;;
13234;SDS011;6683;48.506;9.050;2023-04-24T04:39:19;1.80;;;0.57;;
13234;SDS011;6683;48.506;9.050;2023-04-24T04:42:23;1.73;;;0.50;;
13234;SDS011;6683;48.506;9.050;2023-04-24T04:45:25;2.07;;;0.70;;
13234;SDS011;6683;48.506;9.050;2023-04-24T04:48:28;1.10;;;0.57;;
13234;SDS011;6683;48.506;9.050;2023-04-24T04:51:32;0.77;;;0.57;;
13234;SDS011;6683;48.506;9.050;2023-04-24T04:54:34;1.53;;;0.70;;
13234;SDS011;6683;48.506;9.050;2023-04-24T04:57:38;0.73;;;0.70;;
13234;SDS011;6683;48.506;9.050;2023-04-24T05:00:41;1.23;;;0.90;;
13234;SDS011;6683;48.506;9.050;2023-04-24T05:03:43;1.17;;;0.80;;
13234;SDS011;6683;48.506;9.050;2023-04-24T05:06:46;0.90;;;0.70;;
13234;SDS011;6683;48.506;9.050;2023-04-24T05:09:48;0.80;;;0.70;;
13234;SDS011;6683;48.506;9.050;2023-04-24T05:12:53;0.70;;;0.70;;
13234;SDS011;6683;48.506;9.050;2023-04-24T05:15:55;0.60;;;0.60;;
13234;SDS011;6683;48.506;9.050;2023-04-24T05:18:59;1.37;;;0.80;;
13234;SDS011;6683;48.506;9.050;2023-04-24T05:22:01;0.70;;;0.70;;
13234;SDS011;6683;48.506;9.050;2023-04-24T05:25:06;1.43;;;0.80;;
13234;SDS011;6683;48.506;9.050;2023-04-24T05:28:11;0.80;;;0.70;;
13234;SDS011;6683;48.506;9.050;2023-04-24T05:31:13;0.90;;;0.90;;
13234;SDS011;6683;48.506;9.050;2023-04-24T05:34:17;0.93;;;0.83;;
13234;SDS011;6683;48.506;9.050;2023-04-24T05:37:20;1.20;;;0.80;;
13234;SDS011;6683;48.506;9.050;2023-04-24T05:40:23;1.10;;;1.00;;
13234;SDS011;6683;48.506;9.050;2023-04-24T05:43:27;1.90;;;0.90;;
13234;SDS011;6683;48.506;9.050;2023-04-24T05:46:29;0.87;;;0.77;;
13234;SDS011;6683;48.506;9.050;2023-04-24T05:49:32;1.90;;;0.83;;
13234;SDS011;6683;48.506;9.050;2023-04-24T05:52:35;0.87;;;0.80;;
13234;SDS011;6683;48.506;9.050;2023-04-24T05:55:37;2.00;;;1.20;;
13234;SDS011;6683;48.506;9.050;2023-04-24T05:58:41;0.90;;;0.90;;
13234;SDS011;6683;48.506;9.050;2023-04-24T06:01:43;0.83;;;0.83;;
13234;SDS011;6683;48.506;9.050;2023-04-24T06:04:46;1.03;;;1.00;;
13234;SDS011;6683;48.506;9.050;2023-04-24T06:07:49;1.10;;;1.00;;
13234;SDS011;6683;48.506;9.050;2023-04-24T06:10:52;1.93;;;1.00;;
13234;SDS011;6683;48.506;9.050;2023-04-24T06:13:56;1.37;;;1.00;;
13234;SDS011;6683;48.506;9.050;2023-04-24T06:16:58;1.10;;;1.00;;
13234;SDS011;6683;48.506;9.050;2023-04-24T06:20:00;3.00;;;1.00;;
13234;SDS011;6683;48.506;9.050;2023-04-24T06:23:05;1.10;;;1.00;;
13234;SDS011;6683;48.506;9.050;2023-04-24T06:26:08;0.80;;;0.80;;
13234;SDS011;6683;48.506;9.050;2023-04-24T06:29:12;1.10;;;0.83;;
13234;SDS011;6683;48.506;9.050;2023-04-24T06:32:14;0.70;;;0.70;;
13234;SDS011;6683;48.506;9.050;2023-04-24T06:35:17;1.73;;;0.97;;
13234;SDS011;6683;48.506;9.050;2023-04-24T06:38:19;0.90;;;0.90;;
13234;SDS011;6683;48.506;9.050;2023-04-24T06:41:22;2.13;;;1.13;;
13234;SDS011;6683;48.506;9.050;2023-04-24T06:44:26;1.10;;;0.90;;
13234;SDS011;6683;48.506;9.050;2023-04-24T06:47:28;1.00;;;1.00;;
13234;SDS011;6683;48.506;9.050;2023-04-24T06:50:31;1.20;;;1.10;;
13234;SDS011;6683;48.506;9.050;2023-04-24T06:53:34;1.20;;;1.10;;
13234;SDS011;6683;48.506;9.050;2023-04-24T06:56:36;1.90;;;1.10;;
13234;SDS011;6683;48.506;9.050;2023-04-24T06:59:40;1.20;;;1.10;;
13234;SDS011;6683;48.506;9.050;2023-04-24T07:02:43;1.17;;;1.17;;
13234;SDS011;6683;48.506;9.050;2023-04-24T07:05:45;1.40;;;1.30;;
13234;SDS011;6683;48.506;9.050;2023-04-24T07:08:48;1.53;;;1.43;;
13234;SDS011;6683;48.506;9.050;2023-04-24T07:11:50;1.27;;;1.00;;
13234;SDS011;6683;48.506;9.050;2023-04-24T07:14:55;2.23;;;1.10;;
13234;SDS011;6683;48.506;9.050;2023-04-24T07:17:57;1.17;;;1.07;;
13234;SDS011;6683;48.506;9.050;2023-04-24T07:20:59;1.03;;;1.00;;
13234;SDS011;6683;48.506;9.050;2023-04-24T07:24:02;1.67;;;1.00;;
13234;SDS011;6683;48.506;9.050;2023-04-24T07:27:04;1.20;;;1.00;;
13234;SDS011;6683;48.506;9.050;2023-04-24T07:30:08;1.30;;;0.90;;
13234;SDS011;6683;48.506;9.050;2023-04-24T07:33:12;0.70;;;0.70;;
13234;SDS011;6683;48.506;9.050;2023-04-24T07:36:15;0.97;;;0.93;;
13234;SDS011;6683;48.506;9.050;2023-04-24T07:39:18;0.97;;;0.90;;
13234;SDS011;6683;48.506;9.050;2023-04-24T07:42:21;1.33;;;1.00;;
13234;SDS011;6683;48.506;9.050;2023-04-24T07:45:24;4.77;;;1.17;;
13234;SDS011;6683;48.506;9.050;2023-04-24T07:48:28;1.03;;;0.93;;
13234;SDS011;6683;48.506;9.050;2023-04-24T07:51:30;1.10;;;1.00;;
13234;SDS011;6683;48.506;9.050;2023-04-24T07:54:38;1.43;;;1.10;;
13234;SDS011;6683;48.506;9.050;2023-04-24T07:57:40;1.23;;;1.00;;
13234;SDS011;6683;48.506;9.050;2023-04-24T08:00:44;3.73;;;1.20;;
13234;SDS011;6683;48.506;9.050;2023-04-24T08:03:46;1.20;;;1.00;;
13234;SDS011;6683;48.506;9.050;2023-04-24T08:06:49;1.10;;;1.00;;
13234;SDS011;6683;48.506;9.050;2023-04-24T08:09:51;1.80;;;1.07;;
13234;SDS011;6683;48.506;9.050;2023-04-24T08:12:53;1.10;;;1.00;;
13234;SDS011;6683;48.506;9.050;2023-04-24T08:15:58;1.07;;;0.97;;
13234;SDS011;6683;48.506;9.050;2023-04-24T08:19:00;1.60;;;1.17;;
13234;SDS011;6683;48.506;9.050;2023-04-24T08:22:03;2.40;;;1.30;;
13234;SDS011;6683;48.506;9.050;2023-04-24T08:25:06;0.97;;;0.93;;
13234;SDS011;6683;48.506;9.050;2023-04-24T08:28:10;1.10;;;0.90;;
13234;SDS011;6683;48.506;9.050;2023-04-24T08:31:13;1.10;;;1.00;;
13234;SDS011;6683;48.506;9.050;2023-04-24T08:34:16;1.77;;;1.27;;
13234;SDS011;6683;48.506;9.050;2023-04-24T08:37:19;1.13;;;1.00;;
13234;SDS011;6683;48.506;9.050;2023-04-24T08:40:22;1.20;;;1.10;;
13234;SDS011;6683;48.506;9.050;2023-04-24T08:43:30;2.13;;;1.20;;
13234;SDS011;6683;48.506;9.050;2023-04-24T08:46:38;4.43;;;1.00;;
13234;SDS011;6683;48.506;9.050;2023-04-24T08:49:42;1.30;;;1.10;;
13234;SDS011;6683;48.506;9.050;2023-04-24T08:52:45;3.30;;;1.10;;
13234;SDS011;6683;48.506;9.050;2023-04-24T08:55:50;1.40;;;0.93;;
13234;SDS011;6683;48.506;9.050;2023-04-24T08:58:55;2.60;;;1.10;;
13234;SDS011;6683;48.506;9.050;2023-04-24T09:01:59;1.20;;;1.00;;
13234;SDS011;6683;48.506;9.050;2023-04-24T09:05:03;2.27;;;1.37;;
13234;SDS011;6683;48.506;9.050;2023-04-24T09:08:07;2.50;;;1.03;;
13234;SDS011;6683;48.506;9.050;2023-04-24T09:11:11;1.17;;;1.07;;
13234;SDS011;6683;48.506;9.050;2023-04-24T09:14:13;1.10;;;1.00;;
13234;SDS011;6683;48.506;9.050;2023-04-24T09:17:18;1.50;;;1.40;;
13234;SDS011;6683;48.506;9.050;2023-04-24T09:20:22;2.60;;;1.37;;
13234;SDS011;6683;48.506;9.050;2023-04-24T09:23:25;1.30;;;1.10;;
13234;SDS011;6683;48.506;9.050;2023-04-24T09:26:29;3.73;;;1.20;;
13234;SDS011;6683;48.506;9.050;2023-04-24T09:29:33;1.10;;;0.90;;
13234;SDS011;6683;48.506;9.050;2023-04-24T09:32:37;1.97;;;1.10;;
13234;SDS011;6683;48.506;9.050;2023-04-24T09:35:40;0.93;;;0.90;;
13234;SDS011;6683;48.506;9.050;2023-04-24T09:38:43;1.77;;;1.00;;
13234;SDS011;6683;48.506;9.050;2023-04-24T09:41:47;3.37;;;1.20;;
13234;SDS011;6683;48.506;9.050;2023-04-24T09:44:51;3.77;;;1.20;;
13234;SDS011;6683;48.506;9.050;2023-04-24T09:47:57;1.60;;;1.10;;
13234;SDS011;6683;48.506;9.050;2023-04-24T09:51:00;0.97;;;0.87;;
13234;SDS011;6683;48.506;9.050;2023-04-24T09:54:04;1.10;;;0.90;;
13234;SDS011;6683;48.506;9.050;2023-04-24T09:57:15;1.60;;;0.90;;
13234;SDS011;6683;48.506;9.050;2023-04-24T10:00:18;1.53;;;0.83;;
13234;SDS011;6683;48.506;9.050;2023-04-24T10:03:27;2.30;;;1.03;;
13234;SDS011;6683;48.506;9.050;2023-04-24T10:06:33;1.23;;;0.80;;
13234;SDS011;6683;48.506;9.050;2023-04-24T10:09:35;1.30;;;0.97;;
13234;SDS011;6683;48.506;9.050;2023-04-24T10:12:38;1.00;;;0.90;;
13234;SDS011;6683;48.506;9.050;2023-04-24T10:15:42;1.13;;;1.00;;
13234;SDS011;6683;48.506;9.050;2023-04-24T10:18:46;2.10;;;0.90;;
13234;SDS011;6683;48.506;9.050;2023-04-24T10:21:51;1.77;;;0.80;;
13234;SDS011;6683;48.506;9.050;2023-04-24T10:24:55;1.40;;;0.73;;
13234;SDS011;6683;48.506;9.050;2023-04-24T10:28:00;0.70;;;0.70;;
13234;SDS011;6683;48.506;9.050;2023-04-24T10:31:03;1.00;;;0.77;;
13234;SDS011;6683;48.506;9.050;2023-04-24T10:34:08;1.23;;;0.80;;
13234;SDS011;6683;48.506;9.050;2023-04-24T10:37:13;0.80;;;0.80;;
13234;SDS011;6683;48.506;9.050;2023-04-24T10:40:17;1.37;;;0.80;;
13234;SDS011;6683;48.506;9.050;2023-04-24T10:43:25;0.70;;;0.70;;
13234;SDS011;6683;48.506;9.050;2023-04-24T10:46:30;1.53;;;0.80;;
13234;SDS011;6683;48.506;9.050;2023-04-24T10:49:34;0.50;;;0.50;;
13234;SDS011;6683;48.506;9.050;2023-04-24T10:52:45;0.93;;;0.87;;
13234;SDS011;6683;48.506;9.050;2023-04-24T10:55:48;0.63;;;0.60;;
13234;SDS011;6683;48.506;9.050;2023-04-24T10:58:53;0.80;;;0.70;;
13234;SDS011;6683;48.506;9.050;2023-04-24T11:01:55;1.03;;;0.67;;
13234;SDS011;6683;48.506;9.050;2023-04-24T11:04:59;0.90;;;0.70;;
13234;SDS011;6683;48.506;9.050;2023-04-24T11:08:11;1.10;;;0.70;;
13234;SDS011;6683;48.506;9.050;2023-04-24T11:11:16;1.10;;;0.70;;
13234;SDS011;6683;48.506;9.050;2023-04-24T11:14:20;1.10;;;0.80;;
13234;SDS011;6683;48.506;9.050;2023-04-24T11:17:27;4.23;;;1.10;;
13234;SDS011;6683;48.506;9.050;2023-04-24T11:20:33;1.10;;;0.80;;
13234;SDS011;6683;48.506;9.050;2023-04-24T11:23:36;0.63;;;0.63;;
13234;SDS011;6683;48.506;9.050;2023-04-24T11:26:38;0.63;;;0.60;;
13234;SDS011;6683;48.506;9.050;2023-04-24T11:29:43;1.20;;;0.80;;
13234;SDS011;6683;48.506;9.050;2023-04-24T11:32:48;0.80;;;0.80;;
13234;SDS011;6683;48.506;9.050;2023-04-24T11:35:53;1.73;;;0.73;;
13234;SDS011;6683;48.506;9.050;2023-04-24T11:38:56;1.47;;;0.67;;
13234;SDS011;6683;48.506;9.050;2023-04-24T11:42:01;0.83;;;0.60;;
13234;SDS011;6683;48.506;9.050;2023-04-24T11:45:07;0.73;;;0.60;;
13234;SDS011;6683;48.506;9.050;2023-04-24T11:48:11;2.47;;;0.80;;
13234;SDS011;6683;48.506;9.050;2023-04-24T11:51:15;1.07;;;0.70;;
13234;SDS011;6683;48.506;9.050;2023-04-24T11:54:17;0.73;;;0.60;;
13234;SDS011;6683;48.506;9.050;2023-04-24T11:57:20;1.47;;;0.80;;
13234;SDS011;6683;48.506;9.050;2023-04-24T12:00:24;4.57;;;1.17;;
13234;SDS011;6683;48.506;9.050;2023-04-24T12:03:28;1.13;;;0.70;;
13234;SDS011;6683;48.506;9.050;2023-04-24T12:06:32;1.63;;;0.70;;
13234;SDS011;6683;48.506;9.050;2023-04-24T12:09:40;0.70;;;0.70;;
13234;SDS011;6683;48.506;9.050;2023-04-24T12:12:44;0.60;;;0.50;;
13234;SDS011;6683;48.506;9.050;2023-04-24T12:15:50;0.83;;;0.60;;
13234;SDS011;6683;48.506;9.050;2023-04-24T12:18:52;0.67;;;0.67;;
13234;SDS011;6683;48.506;9.050;2023-04-24T12:22:02;0.77;;;0.67;;
13234;SDS011;6683;48.506;9.050;2023-04-24T12:25:09;1.53;;;0.60;;
13234;SDS011;6683;48.506;9.050;2023-04-24T12:28:12;2.50;;;0.70;;
13234;SDS011;6683;48.506;9.050;2023-04-24T12:31:15;0.90;;;0.70;;
13234;SDS011;6683;48.506;9.050;2023-04-24T12:34:18;0.60;;;0.60;;
13234;SDS011;6683;48.506;9.050;2023-04-24T12:37:24;2.00;;;0.80;;
13234;SDS011;6683;48.506;9.050;2023-04-24T12:40:28;1.00;;;0.60;;
13234;SDS011;6683;48.506;9.050;2023-04-24T12:43:31;1.67;;;0.80;;
13234;SDS011;6683;48.506;9.050;2023-04-24T12:46:34;0.93;;;0.80;;
13234;SDS011;6683;48.506;9.050;2023-04-24T12:49:37;2.20;;;0.90;;
13234;SDS011;6683;48.506;9.050;2023-04-24T12:52:41;1.00;;;0.90;;
13234;SDS011;6683;48.506;9.050;2023-04-24T12:55:44;1.10;;;1.00;;
13234;SDS011;6683;48.506;9.050;2023-04-24T12:58:52;0.80;;;0.80;;
13234;SDS011;6683;48.506;9.050;2023-04-24T13:01:54;1.10;;;0.80;;
13234;SDS011;6683;48.506;9.050;2023-04-24T13:04:57;0.97;;;0.80;;
13234;SDS011;6683;48.506;9.050;2023-04-24T13:08:01;0.70;;;0.70;;
13234;SDS011;6683;48.506;9.050;2023-04-24T13:11:04;1.60;;;0.90;;
13234;SDS011;6683;48.506;9.050;2023-04-24T13:14:07;3.23;;;0.83;;
13234;SDS011;6683;48.506;9.050;2023-04-24T13:17:09;1.10;;;0.80;;
13234;SDS011;6683;48.506;9.050;2023-04-24T13:20:13;1.77;;;1.00;;
13234;SDS011;6683;48.506;9.050;2023-04-24T13:23:16;2.87;;;1.00;;
13234;SDS011;6683;48.506;9.050;2023-04-24T13:26:19;4.30;;;2.53;;
13234;SDS011;6683;48.506;9.050;2023-04-24T13:29:22;2.53;;;2.20;;
13234;SDS011;6683;48.506;9.050;2023-04-24T13:32:24;2.50;;;1.57;;
13234;SDS011;6683;48.506;9.050;2023-04-24T13:35:28;1.20;;;0.90;;
13234;SDS011;6683;48.506;9.050;2023-04-24T13:38:32;0.83;;;0.70;;
13234;SDS011;6683;48.506;9.050;2023-04-24T13:41:34;1.03;;;0.90;;
13234;SDS011;6683;48.506;9.050;2023-04-24T13:44:37;1.07;;;0.90;;
13234;SDS011;6683;48.506;9.050;2023-04-24T13:47:39;1.00;;;1.00;;
13234;SDS011;6683;48.506;9.050;2023-04-24T13:50:42;0.83;;;0.70;;
13234;SDS011;6683;48.506;9.050;2023-04-24T13:53:49;0.80;;;0.70;;
13234;SDS011;6683;48.506;9.050;2023-04-24T13:56:51;1.27;;;0.80;;
13234;SDS011;6683;48.506;9.050;2023-04-24T13:59:54;2.00;;;0.80;;
13234;SDS011;6683;48.506;9.050;2023-04-24T14:03:01;1.03;;;0.93;;
13234;SDS011;6683;48.506;9.050;2023-04-24T14:06:03;0.87;;;0.83;;
13234;SDS011;6683;48.506;9.050;2023-04-24T14:09:07;2.40;;;1.03;;
13234;SDS011;6683;48.506;9.050;2023-04-24T14:12:09;2.80;;;1.00;;
13234;SDS011;6683;48.506;9.050;2023-04-24T14:15:12;0.97;;;0.90;;
13234;SDS011;6683;48.506;9.050;2023-04-24T14:18:15;1.40;;;0.90;;
13234;SDS011;6683;48.506;9.050;2023-04-24T14:21:18;1.10;;;0.80;;
13234;SDS011;6683;48.506;9.050;2023-04-24T14:24:22;1.23;;;0.90;;
13234;SDS011;6683;48.506;9.050;2023-04-24T14:27:24;1.07;;;0.90;;
13234;SDS011;6683;48.506;9.050;2023-04-24T14:30:27;0.90;;;0.90;;
13234;SDS011;6683;48.506;9.050;2023-04-24T14:33:29;1.57;;;1.03;;
13234;SDS011;6683;48.506;9.050;2023-04-24T14:36:32;1.67;;;0.93;;
13234;SDS011;6683;48.506;9.050;2023-04-24T14:39:36;1.03;;;0.90;;
13234;SDS011;6683;48.506;9.050;2023-04-24T14:42:38;1.43;;;0.93;;
13234;SDS011;6683;48.506;9.050;2023-04-24T14:45:41;2.00;;;0.83;;
13234;SDS011;6683;48.506;9.050;2023-04-24T14:48:44;2.10;;;0.90;;
13234;SDS011;6683;48.506;9.050;2023-04-24T14:51:47;1.03;;;0.80;;
13234;SDS011;6683;48.506;9.050;2023-04-24T14:54:51;1.20;;;0.90;;
13234;SDS011;6683;48.506;9.050;2023-04-24T14:57:53;1.80;;;1.00;;
13234;SDS011;6683;48.506;9.050;2023-04-24T15:00:55;1.43;;;0.77;;
13234;SDS011;6683;48.506;9.050;2023-04-24T15:03:58;1.40;;;0.90;;
13234;SDS011;6683;48.506;9.050;2023-04-24T15:07:00;0.90;;;0.90;;
13234;SDS011;6683;48.506;9.050;2023-04-24T15:10:05;1.47;;;1.10;;
13234;SDS011;6683;48.506;9.050;2023-04-24T15:13:09;0.90;;;0.80;;
13234;SDS011;6683;48.506;9.050;2023-04-24T15:16:12;1.00;;;0.87;;
13234;SDS011;6683;48.506;9.050;2023-04-24T15:19:14;1.23;;;0.90;;
13234;SDS011;6683;48.506;9.050;2023-04-24T15:22:17;1.17;;;1.00;;
13234;SDS011;6683;48.506;9.050;2023-04-24T15:25:21;1.00;;;0.90;;
13234;SDS011;6683;48.506;9.050;2023-04-24T15:28:24;1.00;;;0.80;;
13234;SDS011;6683;48.506;9.050;2023-04-24T15:31:26;0.83;;;0.77;;
13234;SDS011;6683;48.506;9.050;2023-04-24T15:34:29;1.73;;;1.13;;
13234;SDS011;6683;48.506;9.050;2023-04-24T15:37:32;0.77;;;0.77;;
13234;SDS011;6683;48.506;9.050;2023-04-24T15:40:36;1.87;;;0.80;;
13234;SDS011;6683;48.506;9.050;2023-04-24T15:43:38;0.90;;;0.90;;
13234;SDS011;6683;48.506;9.050;2023-04-24T15:46:41;1.27;;;1.00;;
13234;SDS011;6683;48.506;9.050;2023-04-24T15:49:44;0.97;;;0.87;;
13234;SDS011;6683;48.506;9.050;2023-04-24T15:52:46;1.10;;;0.90;;
13234;SDS011;6683;48.506;9.050;2023-04-24T15:55:51;1.53;;;0.90;;
13234;SDS011;6683;48.506;9.050;2023-04-24T15:58:54;1.40;;;1.17;;
13234;SDS011;6683;48.506;9.050;2023-04-24T16:01:56;1.57;;;0.90;;
13234;SDS011;6683;48.506;9.050;2023-04-24T16:04:59;1.53;;;0.93;;
13234;SDS011;6683;48.506;9.050;2023-04-24T16:08:03;1.53;;;0.70;;
13234;SDS011;6683;48.506;9.050;2023-04-24T16:11:07;0.97;;;0.90;;
13234;SDS011;6683;48.506;9.050;2023-04-24T16:14:10;0.97;;;0.80;;
13234;SDS011;6683;48.506;9.050;2023-04-24T16:17:13;1.10;;;0.90;;
13234;SDS011;6683;48.506;9.050;2023-04-24T16:20:16;0.97;;;0.80;;
13234;SDS011;6683;48.506;9.050;2023-04-24T16:23:18;0.90;;;0.67;;
13234;SDS011;6683;48.506;9.050;2023-04-24T16:26:22;0.73;;;0.73;;
13234;SDS011;6683;48.506;9.050;2023-04-24T16:29:25;1.13;;;0.87;;
13234;SDS011;6683;48.506;9.050;2023-04-24T16:32:28;2.60;;;0.90;;
13234;SDS011;6683;48.506;9.050;2023-04-24T16:35:31;1.30;;;0.97;;
13234;SDS011;6683;48.506;9.050;2023-04-24T16:38:34;1.70;;;0.70;;
13234;SDS011;6683;48.506;9.050;2023-04-24T16:41:38;0.60;;;0.60;;
13234;SDS011;6683;48.506;9.050;2023-04-24T16:44:41;1.10;;;1.00;;
13234;SDS011;6683;48.506;9.050;2023-04-24T16:47:43;2.07;;;0.80;;
13234;SDS011;6683;48.506;9.050;2023-04-24T16:50:46;0.93;;;0.83;;
13234;SDS011;6683;48.506;9.050;2023-04-24T16:53:48;1.00;;;0.80;;
13234;SDS011;6683;48.506;9.050;2023-04-24T16:56:52;1.70;;;1.30;;
13234;SDS011;6683;48.506;9.050;2023-04-24T16:59:55;1.23;;;0.83;;
13234;SDS011;6683;48.506;9.050;2023-04-24T17:02:58;7.73;;;1.30;;
13234;SDS011;6683;48.506;9.050;2023-04-24T17:06:00;1.40;;;0.80;;
13234;SDS011;6683;48.506;9.050;2023-04-24T17:09:02;1.03;;;0.80;;
13234;SDS011;6683;48.506;9.050;2023-04-24T17:12:07;0.93;;;0.90;;
13234;SDS011;6683;48.506;9.050;2023-04-24T17:15:10;1.73;;;0.97;;
13234;SDS011;6683;48.506;9.050;2023-04-24T17:18:12;0.90;;;0.80;;
13234;SDS011;6683;48.506;9.050;2023-04-24T17:21:16;0.80;;;0.80;;
13234;SDS011;6683;48.506;9.050;2023-04-24T17:24:19;0.83;;;0.73;;
13234;SDS011;6683;48.506;9.050;2023-04-24T17:27:23;0.83;;;0.83;;
13234;SDS011;6683;48.506;9.050;2023-04-24T17:30:25;1.70;;;0.70;;
13234;SDS011;6683;48.506;9.050;2023-04-24T17:33:28;1.23;;;1.00;;
13234;SDS011;6683;48.506;9.050;2023-04-24T17:36:31;1.10;;;0.87;;
13234;SDS011;6683;48.506;9.050;2023-04-24T17:39:34;1.00;;;0.77;;
13234;SDS011;6683;48.506;9.050;2023-04-24T17:42:37;1.30;;;0.97;;
13234;SDS011;6683;48.506;9.050;2023-04-24T17:45:41;3.00;;;1.20;;
13234;SDS011;6683;48.506;9.050;2023-04-24T17:48:44;1.10;;;0.90;;
13234;SDS011;6683;48.506;9.050;2023-04-24T17:51:46;0.93;;;0.73;;
13234;SDS011;6683;48.506;9.050;2023-04-24T17:54:48;1.33;;;0.80;;
13234;SDS011;6683;48.506;9.050;2023-04-24T17:57:52;1.20;;;0.90;;
13234;SDS011;6683;48.506;9.050;2023-04-24T18:00:55;1.33;;;0.90;;
13234;SDS011;6683;48.506;9.050;2023-04-24T18:03:57;1.93;;;1.03;;
13234;SDS011;6683;48.506;9.050;2023-04-24T18:07:00;1.20;;;1.10;;
13234;SDS011;6683;48.506;9.050;2023-04-24T18:10:03;1.27;;;0.90;;
13234;SDS011;6683;48.506;9.050;2023-04-24T18:13:08;1.53;;;1.07;;
13234;SDS011;6683;48.506;9.050;2023-04-24T18:16:10;1.10;;;1.00;;
13234;SDS011;6683;48.506;9.050;2023-04-24T18:19:13;3.53;;;1.20;;
13234;SDS011;6683;48.506;9.050;2023-04-24T18:22:15;1.80;;;1.10;;
13234;SDS011;6683;48.506;9.050;2023-04-24T18:25:18;1.37;;;0.90;;
13234;SDS011;6683;48.506;9.050;2023-04-24T18:28:26;1.60;;;1.13;;
13234;SDS011;6683;48.506;9.050;2023-04-24T18:31:30;0.90;;;0.90;;
13234;SDS011;6683;48.506;9.050;2023-04-24T18:34:33;1.10;;;0.90;;
13234;SDS011;6683;48.506;9.050;2023-04-24T18:37:36;1.30;;;1.10;;
13234;SDS011;6683;48.506;9.050;2023-04-24T18:40:39;0.90;;;0.90;;